sensor_id;sensor_type;location;lat;lon;timestamp;P1;durP1;ratioP1;P2;durP2;ratioP2
33954;SDS011;20233;50.804;7.126;2023-04-03T00:01:27;2.55;;;0.70;;
33954;SDS011;20233;50.804;7.126;2023-04-03T00:03:53;3.33;;;0.80;;
33954;SDS011;20233;50.804;7.126;2023-04-03T00:06:19;3.13;;;0.68;;
33954;SDS011;20233;50.804;7.126;2023-04-03T00:08:45;3.75;;;0.80;;
33954;SDS011;20233;50.804;7.126;2023-04-03T00:11:10;4.22;;;0.70;;
33954;SDS011;20233;50.804;7.126;2023-04-03T00:13:37;5.72;;;0.57;;
33954;SDS011;20233;50.804;7.126;2023-04-03T00:16:03;2.65;;;0.52;;
33954;SDS011;20233;50.804;7.126;2023-04-03T00:18:29;2.45;;;0.73;;
33954;SDS011;20233;50.804;7.126;2023-04-03T00:20:54;2.88;;;0.80;;
33954;SDS011;20233;50.804;7.126;2023-04-03T00:23:20;3.78;;;0.68;;
33954;SDS011;20233;50.804;7.126;2023-04-03T00:25:48;2.75;;;0.70;;
33954;SDS011;20233;50.804;7.126;2023-04-03T00:28:14;2.17;;;0.50;;
33954;SDS011;20233;50.804;7.126;2023-04-03T00:30:40;1.88;;;0.50;;
33954;SDS011;20233;50.804;7.126;2023-04-03T00:33:06;2.00;;;0.70;;
33954;SDS011;20233;50.804;7.126;2023-04-03T00:35:31;3.58;;;0.60;;
33954;SDS011;20233;50.804;7.126;2023-04-03T00:37:58;3.35;;;0.60;;
33954;SDS011;20233;50.804;7.126;2023-04-03T00:40:25;3.67;;;0.77;;
33954;SDS011;20233;50.804;7.126;2023-04-03T00:42:55;3.38;;;1.10;;
33954;SDS011;20233;50.804;7.126;2023-04-03T00:45:25;3.35;;;0.77;;
33954;SDS011;20233;50.804;7.126;2023-04-03T00:47:54;3.38;;;0.70;;
33954;SDS011;20233;50.804;7.126;2023-04-03T00:50:21;3.25;;;0.60;;
33954;SDS011;20233;50.804;7.126;2023-04-03T00:52:47;3.65;;;0.82;;
33954;SDS011;20233;50.804;7.126;2023-04-03T00:55:14;3.78;;;0.90;;
33954;SDS011;20233;50.804;7.126;2023-04-03T00:57:40;3.10;;;0.80;;
33954;SDS011;20233;50.804;7.126;2023-04-03T01:00:08;4.43;;;2.28;;
33954;SDS011;20233;50.804;7.126;2023-04-03T01:02:37;5.43;;;0.85;;
33954;SDS011;20233;50.804;7.126;2023-04-03T01:05:06;4.45;;;1.15;;
33954;SDS011;20233;50.804;7.126;2023-04-03T01:07:32;3.75;;;1.15;;
33954;SDS011;20233;50.804;7.126;2023-04-03T01:10:00;4.35;;;1.35;;
33954;SDS011;20233;50.804;7.126;2023-04-03T01:12:32;4.20;;;1.17;;
33954;SDS011;20233;50.804;7.126;2023-04-03T01:15:02;4.15;;;1.30;;
33954;SDS011;20233;50.804;7.126;2023-04-03T01:23:06;3.42;;;1.20;;
33954;SDS011;20233;50.804;7.126;2023-04-03T01:25:53;4.43;;;1.48;;
33954;SDS011;20233;50.804;7.126;2023-04-03T01:28:31;2.72;;;1.00;;
33954;SDS011;20233;50.804;7.126;2023-04-03T01:33:51;3.53;;;1.73;;
33954;SDS011;20233;50.804;7.126;2023-04-03T01:36:18;3.78;;;1.20;;
33954;SDS011;20233;50.804;7.126;2023-04-03T01:38:49;2.35;;;1.00;;
33954;SDS011;20233;50.804;7.126;2023-04-03T01:41:15;2.67;;;1.05;;
33954;SDS011;20233;50.804;7.126;2023-04-03T01:43:41;3.30;;;1.33;;
33954;SDS011;20233;50.804;7.126;2023-04-03T01:46:07;4.47;;;1.30;;
33954;SDS011;20233;50.804;7.126;2023-04-03T01:48:33;6.05;;;1.42;;
33954;SDS011;20233;50.804;7.126;2023-04-03T01:50:58;3.83;;;1.48;;
33954;SDS011;20233;50.804;7.126;2023-04-03T01:53:24;2.08;;;0.70;;
33954;SDS011;20233;50.804;7.126;2023-04-03T01:55:49;1.98;;;0.80;;
33954;SDS011;20233;50.804;7.126;2023-04-03T01:58:15;3.58;;;1.17;;
33954;SDS011;20233;50.804;7.126;2023-04-03T02:00:41;2.95;;;1.05;;
33954;SDS011;20233;50.804;7.126;2023-04-03T02:03:07;3.78;;;2.03;;
33954;SDS011;20233;50.804;7.126;2023-04-03T02:05:32;2.88;;;1.10;;
33954;SDS011;20233;50.804;7.126;2023-04-03T02:07:58;4.47;;;1.38;;
33954;SDS011;20233;50.804;7.126;2023-04-03T02:10:23;2.45;;;0.90;;
33954;SDS011;20233;50.804;7.126;2023-04-03T02:12:49;3.97;;;1.00;;
33954;SDS011;20233;50.804;7.126;2023-04-03T02:15:15;2.53;;;1.02;;
33954;SDS011;20233;50.804;7.126;2023-04-03T02:17:41;4.45;;;1.88;;
33954;SDS011;20233;50.804;7.126;2023-04-03T02:20:08;4.75;;;1.10;;
33954;SDS011;20233;50.804;7.126;2023-04-03T02:22:33;4.40;;;1.60;;
33954;SDS011;20233;50.804;7.126;2023-04-03T02:24:59;3.63;;;1.55;;
33954;SDS011;20233;50.804;7.126;2023-04-03T02:27:26;3.22;;;1.17;;
33954;SDS011;20233;50.804;7.126;2023-04-03T02:29:51;4.32;;;1.08;;
33954;SDS011;20233;50.804;7.126;2023-04-03T02:32:17;3.40;;;1.23;;
33954;SDS011;20233;50.804;7.126;2023-04-03T02:34:43;3.65;;;1.30;;
33954;SDS011;20233;50.804;7.126;2023-04-03T02:37:09;3.65;;;1.23;;
33954;SDS011;20233;50.804;7.126;2023-04-03T02:39:35;3.88;;;1.17;;
33954;SDS011;20233;50.804;7.126;2023-04-03T02:42:00;1.80;;;0.85;;
33954;SDS011;20233;50.804;7.126;2023-04-03T02:44:26;3.45;;;1.13;;
33954;SDS011;20233;50.804;7.126;2023-04-03T02:46:51;4.82;;;1.50;;
33954;SDS011;20233;50.804;7.126;2023-04-03T02:49:17;4.45;;;2.10;;
33954;SDS011;20233;50.804;7.126;2023-04-03T02:51:43;4.13;;;0.90;;
33954;SDS011;20233;50.804;7.126;2023-04-03T02:54:10;4.53;;;1.50;;
33954;SDS011;20233;50.804;7.126;2023-04-03T02:56:36;4.72;;;1.38;;
33954;SDS011;20233;50.804;7.126;2023-04-03T02:59:02;6.40;;;2.70;;
33954;SDS011;20233;50.804;7.126;2023-04-03T03:01:28;5.45;;;1.70;;
33954;SDS011;20233;50.804;7.126;2023-04-03T03:03:56;4.50;;;1.17;;
33954;SDS011;20233;50.804;7.126;2023-04-03T03:06:22;3.03;;;1.23;;
33954;SDS011;20233;50.804;7.126;2023-04-03T03:08:48;2.97;;;1.40;;
33954;SDS011;20233;50.804;7.126;2023-04-03T03:11:14;6.60;;;2.42;;
33954;SDS011;20233;50.804;7.126;2023-04-03T03:13:39;3.55;;;1.27;;
33954;SDS011;20233;50.804;7.126;2023-04-03T03:16:05;3.55;;;1.60;;
33954;SDS011;20233;50.804;7.126;2023-04-03T03:18:31;3.72;;;2.47;;
33954;SDS011;20233;50.804;7.126;2023-04-03T03:20:58;5.80;;;2.15;;
33954;SDS011;20233;50.804;7.126;2023-04-03T03:23:25;5.82;;;1.90;;
33954;SDS011;20233;50.804;7.126;2023-04-03T03:25:55;4.05;;;1.67;;
33954;SDS011;20233;50.804;7.126;2023-04-03T03:28:22;6.55;;;2.78;;
33954;SDS011;20233;50.804;7.126;2023-04-03T03:30:48;3.75;;;1.80;;
33954;SDS011;20233;50.804;7.126;2023-04-03T03:33:14;3.72;;;2.10;;
33954;SDS011;20233;50.804;7.126;2023-04-03T03:35:40;5.57;;;3.38;;
33954;SDS011;20233;50.804;7.126;2023-04-03T03:38:05;4.82;;;2.45;;
33954;SDS011;20233;50.804;7.126;2023-04-03T03:40:31;3.88;;;2.05;;
33954;SDS011;20233;50.804;7.126;2023-04-03T03:42:56;5.88;;;2.22;;
33954;SDS011;20233;50.804;7.126;2023-04-03T03:45:22;5.28;;;2.25;;
33954;SDS011;20233;50.804;7.126;2023-04-03T03:47:49;3.75;;;1.88;;
33954;SDS011;20233;50.804;7.126;2023-04-03T03:50:14;4.68;;;1.92;;
33954;SDS011;20233;50.804;7.126;2023-04-03T03:52:40;3.42;;;2.17;;
33954;SDS011;20233;50.804;7.126;2023-04-03T03:55:06;4.20;;;1.70;;
33954;SDS011;20233;50.804;7.126;2023-04-03T03:57:32;4.68;;;2.13;;
33954;SDS011;20233;50.804;7.126;2023-04-03T03:59:57;3.97;;;1.88;;
33954;SDS011;20233;50.804;7.126;2023-04-03T04:02:23;5.35;;;1.67;;
33954;SDS011;20233;50.804;7.126;2023-04-03T04:04:49;4.38;;;1.83;;
33954;SDS011;20233;50.804;7.126;2023-04-03T04:07:15;4.85;;;1.75;;
33954;SDS011;20233;50.804;7.126;2023-04-03T04:09:41;3.33;;;1.88;;
33954;SDS011;20233;50.804;7.126;2023-04-03T04:12:06;5.28;;;1.77;;
33954;SDS011;20233;50.804;7.126;2023-04-03T04:14:32;3.72;;;1.80;;
33954;SDS011;20233;50.804;7.126;2023-04-03T04:16:57;2.40;;;1.50;;
33954;SDS011;20233;50.804;7.126;2023-04-03T04:19:23;5.05;;;1.75;;
33954;SDS011;20233;50.804;7.126;2023-04-03T04:21:49;3.90;;;1.70;;
33954;SDS011;20233;50.804;7.126;2023-04-03T04:24:16;3.97;;;1.58;;
33954;SDS011;20233;50.804;7.126;2023-04-03T04:26:41;4.72;;;1.58;;
33954;SDS011;20233;50.804;7.126;2023-04-03T04:29:08;2.90;;;1.40;;
33954;SDS011;20233;50.804;7.126;2023-04-03T04:31:35;4.25;;;1.73;;
33954;SDS011;20233;50.804;7.126;2023-04-03T04:34:00;5.63;;;1.92;;
33954;SDS011;20233;50.804;7.126;2023-04-03T04:36:26;6.63;;;1.63;;
33954;SDS011;20233;50.804;7.126;2023-04-03T04:38:53;3.28;;;1.67;;
33954;SDS011;20233;50.804;7.126;2023-04-03T04:41:19;3.05;;;1.38;;
33954;SDS011;20233;50.804;7.126;2023-04-03T04:43:47;3.67;;;1.35;;
33954;SDS011;20233;50.804;7.126;2023-04-03T04:46:16;3.13;;;1.13;;
33954;SDS011;20233;50.804;7.126;2023-04-03T04:48:42;4.97;;;1.40;;
33954;SDS011;20233;50.804;7.126;2023-04-03T04:51:08;3.70;;;1.30;;
33954;SDS011;20233;50.804;7.126;2023-04-03T04:53:33;4.93;;;1.30;;
33954;SDS011;20233;50.804;7.126;2023-04-03T04:55:59;5.53;;;1.50;;
33954;SDS011;20233;50.804;7.126;2023-04-03T04:58:25;2.78;;;0.93;;
33954;SDS011;20233;50.804;7.126;2023-04-03T05:00:57;4.68;;;1.48;;
33954;SDS011;20233;50.804;7.126;2023-04-03T05:03:28;3.83;;;1.40;;
33954;SDS011;20233;50.804;7.126;2023-04-03T05:05:59;5.10;;;1.30;;
33954;SDS011;20233;50.804;7.126;2023-04-03T05:08:26;5.60;;;1.23;;
33954;SDS011;20233;50.804;7.126;2023-04-03T05:10:56;3.50;;;1.00;;
33954;SDS011;20233;50.804;7.126;2023-04-03T05:13:24;4.65;;;2.65;;
33954;SDS011;20233;50.804;7.126;2023-04-03T05:15:53;5.85;;;2.60;;
33954;SDS011;20233;50.804;7.126;2023-04-03T05:18:23;4.78;;;0.95;;
33954;SDS011;20233;50.804;7.126;2023-04-03T05:20:50;4.28;;;0.95;;
33954;SDS011;20233;50.804;7.126;2023-04-03T05:23:19;2.88;;;0.85;;
33954;SDS011;20233;50.804;7.126;2023-04-03T05:25:46;5.60;;;1.00;;
33954;SDS011;20233;50.804;7.126;2023-04-03T05:28:14;3.30;;;0.80;;
33954;SDS011;20233;50.804;7.126;2023-04-03T05:30:44;5.40;;;1.35;;
33954;SDS011;20233;50.804;7.126;2023-04-03T05:33:10;3.17;;;0.60;;
33954;SDS011;20233;50.804;7.126;2023-04-03T05:35:36;2.85;;;0.95;;
33954;SDS011;20233;50.804;7.126;2023-04-03T05:38:07;4.32;;;0.63;;
33954;SDS011;20233;50.804;7.126;2023-04-03T05:40:33;3.60;;;0.98;;
33954;SDS011;20233;50.804;7.126;2023-04-03T05:42:59;5.03;;;1.10;;
33954;SDS011;20233;50.804;7.126;2023-04-03T05:45:25;5.13;;;1.08;;
33954;SDS011;20233;50.804;7.126;2023-04-03T05:47:51;3.60;;;0.98;;
33954;SDS011;20233;50.804;7.126;2023-04-03T05:50:17;2.97;;;0.77;;
33954;SDS011;20233;50.804;7.126;2023-04-03T05:52:44;3.42;;;1.02;;
33954;SDS011;20233;50.804;7.126;2023-04-03T05:55:13;4.90;;;0.95;;
33954;SDS011;20233;50.804;7.126;2023-04-03T05:57:39;2.72;;;0.93;;
33954;SDS011;20233;50.804;7.126;2023-04-03T06:00:06;3.40;;;1.13;;
33954;SDS011;20233;50.804;7.126;2023-04-03T06:02:35;2.72;;;0.60;;
33954;SDS011;20233;50.804;7.126;2023-04-03T06:05:01;3.80;;;0.90;;
33954;SDS011;20233;50.804;7.126;2023-04-03T06:07:27;5.65;;;0.93;;
33954;SDS011;20233;50.804;7.126;2023-04-03T06:09:53;6.57;;;1.10;;
33954;SDS011;20233;50.804;7.126;2023-04-03T06:12:20;4.72;;;0.57;;
33954;SDS011;20233;50.804;7.126;2023-04-03T06:14:47;4.28;;;1.23;;
33954;SDS011;20233;50.804;7.126;2023-04-03T06:17:16;4.00;;;0.80;;
33954;SDS011;20233;50.804;7.126;2023-04-03T06:19:43;4.72;;;1.23;;
33954;SDS011;20233;50.804;7.126;2023-04-03T06:22:09;2.47;;;0.52;;
33954;SDS011;20233;50.804;7.126;2023-04-03T06:24:36;2.38;;;1.45;;
33954;SDS011;20233;50.804;7.126;2023-04-03T06:27:03;3.30;;;0.50;;
33954;SDS011;20233;50.804;7.126;2023-04-03T06:29:31;4.38;;;0.77;;
33954;SDS011;20233;50.804;7.126;2023-04-03T06:31:58;3.67;;;0.80;;
33954;SDS011;20233;50.804;7.126;2023-04-03T06:34:27;1.95;;;0.50;;
33954;SDS011;20233;50.804;7.126;2023-04-03T06:36:54;4.32;;;0.77;;
33954;SDS011;20233;50.804;7.126;2023-04-03T06:39:22;4.22;;;0.50;;
33954;SDS011;20233;50.804;7.126;2023-04-03T06:41:50;2.08;;;0.47;;
33954;SDS011;20233;50.804;7.126;2023-04-03T06:44:17;2.78;;;0.73;;
33954;SDS011;20233;50.804;7.126;2023-04-03T06:46:50;2.17;;;0.30;;
33954;SDS011;20233;50.804;7.126;2023-04-03T06:49:17;3.70;;;0.93;;
33954;SDS011;20233;50.804;7.126;2023-04-03T06:51:42;3.28;;;0.40;;
33954;SDS011;20233;50.804;7.126;2023-04-03T06:54:08;2.05;;;0.40;;
33954;SDS011;20233;50.804;7.126;2023-04-03T06:56:34;3.63;;;0.50;;
33954;SDS011;20233;50.804;7.126;2023-04-03T06:59:00;3.83;;;0.65;;
33954;SDS011;20233;50.804;7.126;2023-04-03T07:01:28;6.20;;;0.80;;
33954;SDS011;20233;50.804;7.126;2023-04-03T07:03:55;6.47;;;2.00;;
33954;SDS011;20233;50.804;7.126;2023-04-03T07:06:24;5.30;;;0.70;;
33954;SDS011;20233;50.804;7.126;2023-04-03T07:08:54;3.22;;;0.43;;
33954;SDS011;20233;50.804;7.126;2023-04-03T07:11:22;4.20;;;0.65;;
33954;SDS011;20233;50.804;7.126;2023-04-03T07:13:49;4.35;;;0.45;;
33954;SDS011;20233;50.804;7.126;2023-04-03T07:16:15;4.75;;;0.70;;
33954;SDS011;20233;50.804;7.126;2023-04-03T07:18:42;4.60;;;0.90;;
33954;SDS011;20233;50.804;7.126;2023-04-03T07:21:08;4.35;;;0.50;;
33954;SDS011;20233;50.804;7.126;2023-04-03T07:23:34;3.72;;;0.75;;
33954;SDS011;20233;50.804;7.126;2023-04-03T07:26:01;3.33;;;0.70;;
33954;SDS011;20233;50.804;7.126;2023-04-03T07:28:30;2.17;;;0.43;;
33954;SDS011;20233;50.804;7.126;2023-04-03T07:31:06;1.92;;;0.50;;
33954;SDS011;20233;50.804;7.126;2023-04-03T07:33:39;5.85;;;0.45;;
33954;SDS011;20233;50.804;7.126;2023-04-03T07:36:07;4.70;;;0.63;;
33954;SDS011;20233;50.804;7.126;2023-04-03T07:38:35;3.47;;;0.95;;
33954;SDS011;20233;50.804;7.126;2023-04-03T07:41:01;6.25;;;0.70;;
33954;SDS011;20233;50.804;7.126;2023-04-03T07:43:30;5.40;;;0.65;;
33954;SDS011;20233;50.804;7.126;2023-04-03T07:45:55;4.95;;;0.55;;
33954;SDS011;20233;50.804;7.126;2023-04-03T07:48:22;3.40;;;0.70;;
33954;SDS011;20233;50.804;7.126;2023-04-03T07:50:49;2.53;;;0.38;;
33954;SDS011;20233;50.804;7.126;2023-04-03T07:53:16;2.63;;;0.50;;
33954;SDS011;20233;50.804;7.126;2023-04-03T07:55:42;5.07;;;0.60;;
33954;SDS011;20233;50.804;7.126;2023-04-03T07:58:11;3.60;;;0.32;;
33954;SDS011;20233;50.804;7.126;2023-04-03T08:00:38;4.22;;;0.47;;
33954;SDS011;20233;50.804;7.126;2023-04-03T08:03:04;3.22;;;0.57;;
33954;SDS011;20233;50.804;7.126;2023-04-03T08:05:36;4.20;;;0.80;;
33954;SDS011;20233;50.804;7.126;2023-04-03T08:08:08;5.07;;;0.68;;
33954;SDS011;20233;50.804;7.126;2023-04-03T08:10:39;3.65;;;0.40;;
33954;SDS011;20233;50.804;7.126;2023-04-03T08:13:05;6.55;;;0.55;;
33954;SDS011;20233;50.804;7.126;2023-04-03T08:15:33;4.53;;;1.08;;
33954;SDS011;20233;50.804;7.126;2023-04-03T08:17:59;2.70;;;0.40;;
33954;SDS011;20233;50.804;7.126;2023-04-03T08:20:26;5.18;;;0.70;;
33954;SDS011;20233;50.804;7.126;2023-04-03T08:22:53;4.18;;;0.50;;
33954;SDS011;20233;50.804;7.126;2023-04-03T08:25:21;4.53;;;0.55;;
33954;SDS011;20233;50.804;7.126;2023-04-03T08:27:47;3.83;;;0.45;;
33954;SDS011;20233;50.804;7.126;2023-04-03T08:30:14;3.80;;;0.50;;
33954;SDS011;20233;50.804;7.126;2023-04-03T08:32:43;4.50;;;0.52;;
33954;SDS011;20233;50.804;7.126;2023-04-03T08:35:10;3.15;;;0.40;;
33954;SDS011;20233;50.804;7.126;2023-04-03T08:37:36;3.50;;;0.40;;
33954;SDS011;20233;50.804;7.126;2023-04-03T08:40:04;6.53;;;1.33;;
33954;SDS011;20233;50.804;7.126;2023-04-03T08:45:43;1.80;;;0.43;;
33954;SDS011;20233;50.804;7.126;2023-04-03T08:48:14;3.33;;;0.30;;
33954;SDS011;20233;50.804;7.126;2023-04-03T08:50:41;3.38;;;0.50;;
33954;SDS011;20233;50.804;7.126;2023-04-03T08:53:26;3.70;;;0.32;;
33954;SDS011;20233;50.804;7.126;2023-04-03T08:55:57;8.50;;;1.95;;
33954;SDS011;20233;50.804;7.126;2023-04-03T08:58:29;4.72;;;0.77;;
33954;SDS011;20233;50.804;7.126;2023-04-03T09:01:05;4.53;;;0.30;;
33954;SDS011;20233;50.804;7.126;2023-04-03T09:03:42;4.53;;;0.50;;
33954;SDS011;20233;50.804;7.126;2023-04-03T09:08:51;6.38;;;0.47;;
33954;SDS011;20233;50.804;7.126;2023-04-03T09:14:32;5.93;;;0.40;;
33954;SDS011;20233;50.804;7.126;2023-04-03T09:17:52;1.88;;;0.30;;
33954;SDS011;20233;50.804;7.126;2023-04-03T09:22:38;1.95;;;0.40;;
33954;SDS011;20233;50.804;7.126;2023-04-03T09:25:12;2.97;;;0.30;;
33954;SDS011;20233;50.804;7.126;2023-04-03T09:27:47;3.25;;;0.30;;
33954;SDS011;20233;50.804;7.126;2023-04-03T09:30:15;3.63;;;0.25;;
33954;SDS011;20233;50.804;7.126;2023-04-03T09:32:47;2.28;;;0.30;;
33954;SDS011;20233;50.804;7.126;2023-04-03T09:37:53;1.85;;;0.50;;
33954;SDS011;20233;50.804;7.126;2023-04-03T09:42:52;1.13;;;0.63;;
33954;SDS011;20233;50.804;7.126;2023-04-03T09:45:24;3.03;;;0.32;;
33954;SDS011;20233;50.804;7.126;2023-04-03T09:50:34;4.07;;;0.30;;
33954;SDS011;20233;50.804;7.126;2023-04-03T09:53:06;3.63;;;0.20;;
33954;SDS011;20233;50.804;7.126;2023-04-03T09:55:33;2.03;;;0.30;;
33954;SDS011;20233;50.804;7.126;2023-04-03T09:58:23;2.58;;;0.20;;
33954;SDS011;20233;50.804;7.126;2023-04-03T10:04:06;4.63;;;0.20;;
33954;SDS011;20233;50.804;7.126;2023-04-03T10:06:41;2.90;;;0.20;;
33954;SDS011;20233;50.804;7.126;2023-04-03T10:11:58;1.73;;;0.20;;
33954;SDS011;20233;50.804;7.126;2023-04-03T10:14:30;1.58;;;0.13;;
33954;SDS011;20233;50.804;7.126;2023-04-03T10:17:09;2.00;;;0.10;;
33954;SDS011;20233;50.804;7.126;2023-04-03T10:19:47;3.42;;;0.40;;
33954;SDS011;20233;50.804;7.126;2023-04-03T10:33:20;3.00;;;0.28;;
33954;SDS011;20233;50.804;7.126;2023-04-03T10:36:10;2.90;;;0.20;;
33954;SDS011;20233;50.804;7.126;2023-04-03T10:39:08;2.80;;;0.40;;
33954;SDS011;20233;50.804;7.126;2023-04-03T10:52:55;1.48;;;0.20;;
33954;SDS011;20233;50.804;7.126;2023-04-03T10:58:23;3.58;;;0.20;;
33954;SDS011;20233;50.804;7.126;2023-04-03T11:00:57;2.17;;;0.30;;
33954;SDS011;20233;50.804;7.126;2023-04-03T11:03:41;2.25;;;0.30;;
33954;SDS011;20233;50.804;7.126;2023-04-03T11:06:11;1.83;;;0.20;;
33954;SDS011;20233;50.804;7.126;2023-04-03T11:08:48;1.77;;;0.17;;
33954;SDS011;20233;50.804;7.126;2023-04-03T11:14:14;0.95;;;0.15;;
33954;SDS011;20233;50.804;7.126;2023-04-03T11:16:44;1.73;;;0.20;;
33954;SDS011;20233;50.804;7.126;2023-04-03T11:22:24;1.83;;;0.30;;
33954;SDS011;20233;50.804;7.126;2023-04-03T11:25:04;2.42;;;0.20;;
33954;SDS011;20233;50.804;7.126;2023-04-03T11:27:41;0.65;;;0.10;;
33954;SDS011;20233;50.804;7.126;2023-04-03T11:30:12;2.03;;;0.47;;
33954;SDS011;20233;50.804;7.126;2023-04-03T11:32:54;3.75;;;0.30;;
33954;SDS011;20233;50.804;7.126;2023-04-03T11:35:43;0.88;;;0.10;;
33954;SDS011;20233;50.804;7.126;2023-04-03T11:38:32;2.50;;;0.10;;
33954;SDS011;20233;50.804;7.126;2023-04-03T11:41:02;2.58;;;0.20;;
33954;SDS011;20233;50.804;7.126;2023-04-03T11:43:32;2.92;;;0.20;;
33954;SDS011;20233;50.804;7.126;2023-04-03T11:50:54;1.92;;;0.30;;
33954;SDS011;20233;50.804;7.126;2023-04-03T11:56:04;1.55;;;0.20;;
33954;SDS011;20233;50.804;7.126;2023-04-03T12:04:16;2.20;;;0.20;;
33954;SDS011;20233;50.804;7.126;2023-04-03T12:09:22;2.08;;;0.10;;
33954;SDS011;20233;50.804;7.126;2023-04-03T12:12:00;2.72;;;0.40;;
33954;SDS011;20233;50.804;7.126;2023-04-03T12:14:46;1.35;;;0.20;;
33954;SDS011;20233;50.804;7.126;2023-04-03T12:17:19;3.17;;;0.15;;
33954;SDS011;20233;50.804;7.126;2023-04-03T12:19:49;1.85;;;0.20;;
33954;SDS011;20233;50.804;7.126;2023-04-03T12:22:17;5.18;;;0.30;;
33954;SDS011;20233;50.804;7.126;2023-04-03T12:24:46;1.85;;;0.10;;
33954;SDS011;20233;50.804;7.126;2023-04-03T12:27:21;2.47;;;0.20;;
33954;SDS011;20233;50.804;7.126;2023-04-03T12:46:45;2.83;;;0.32;;
33954;SDS011;20233;50.804;7.126;2023-04-03T12:51:56;1.85;;;0.20;;
33954;SDS011;20233;50.804;7.126;2023-04-03T12:54:31;1.15;;;0.17;;
33954;SDS011;20233;50.804;7.126;2023-04-03T12:59:41;2.05;;;0.15;;
33954;SDS011;20233;50.804;7.126;2023-04-03T13:02:17;2.50;;;0.30;;
33954;SDS011;20233;50.804;7.126;2023-04-03T13:04:52;2.25;;;0.20;;
33954;SDS011;20233;50.804;7.126;2023-04-03T13:09:56;1.10;;;0.20;;
33954;SDS011;20233;50.804;7.126;2023-04-03T13:12:26;1.45;;;0.13;;
33954;SDS011;20233;50.804;7.126;2023-04-03T13:14:52;1.50;;;0.20;;
33954;SDS011;20233;50.804;7.126;2023-04-03T13:17:23;1.92;;;0.10;;
33954;SDS011;20233;50.804;7.126;2023-04-03T13:19:50;4.22;;;0.43;;
33954;SDS011;20233;50.804;7.126;2023-04-03T13:24:52;1.48;;;0.10;;
33954;SDS011;20233;50.804;7.126;2023-04-03T13:27:20;4.07;;;0.30;;
33954;SDS011;20233;50.804;7.126;2023-04-03T13:29:50;2.58;;;0.20;;
33954;SDS011;20233;50.804;7.126;2023-04-03T13:32:19;1.90;;;0.20;;
33954;SDS011;20233;50.804;7.126;2023-04-03T13:34:50;3.15;;;0.30;;
33954;SDS011;20233;50.804;7.126;2023-04-03T13:37:26;2.13;;;0.28;;
33954;SDS011;20233;50.804;7.126;2023-04-03T13:42:37;2.72;;;0.20;;
33954;SDS011;20233;50.804;7.126;2023-04-03T13:48:15;0.73;;;0.20;;
33954;SDS011;20233;50.804;7.126;2023-04-03T13:50:58;1.85;;;0.20;;
33954;SDS011;20233;50.804;7.126;2023-04-03T13:53:29;1.35;;;0.20;;
33954;SDS011;20233;50.804;7.126;2023-04-03T13:56:09;4.60;;;0.40;;
33954;SDS011;20233;50.804;7.126;2023-04-03T13:59:18;2.65;;;0.40;;
33954;SDS011;20233;50.804;7.126;2023-04-03T14:07:13;4.65;;;0.30;;
33954;SDS011;20233;50.804;7.126;2023-04-03T14:09:43;1.60;;;0.50;;
33954;SDS011;20233;50.804;7.126;2023-04-03T14:12:32;3.45;;;0.30;;
33954;SDS011;20233;50.804;7.126;2023-04-03T14:15:16;3.33;;;0.30;;
33954;SDS011;20233;50.804;7.126;2023-04-03T14:17:45;2.70;;;0.20;;
33954;SDS011;20233;50.804;7.126;2023-04-03T14:20:17;2.67;;;0.50;;
33954;SDS011;20233;50.804;7.126;2023-04-03T14:22:47;4.00;;;0.35;;
33954;SDS011;20233;50.804;7.126;2023-04-03T14:25:15;1.38;;;0.40;;
33954;SDS011;20233;50.804;7.126;2023-04-03T14:28:01;3.45;;;0.47;;
33954;SDS011;20233;50.804;7.126;2023-04-03T14:30:38;3.00;;;0.68;;
33954;SDS011;20233;50.804;7.126;2023-04-03T14:33:06;2.63;;;0.35;;
33954;SDS011;20233;50.804;7.126;2023-04-03T14:35:37;1.73;;;0.30;;
33954;SDS011;20233;50.804;7.126;2023-04-03T14:38:05;1.40;;;0.20;;
33954;SDS011;20233;50.804;7.126;2023-04-03T14:40:53;2.75;;;0.30;;
33954;SDS011;20233;50.804;7.126;2023-04-03T14:43:21;2.33;;;0.35;;
33954;SDS011;20233;50.804;7.126;2023-04-03T14:45:49;2.53;;;0.40;;
33954;SDS011;20233;50.804;7.126;2023-04-03T14:48:18;3.17;;;0.32;;
33954;SDS011;20233;50.804;7.126;2023-04-03T14:50:48;2.80;;;0.30;;
33954;SDS011;20233;50.804;7.126;2023-04-03T14:53:16;2.95;;;0.20;;
33954;SDS011;20233;50.804;7.126;2023-04-03T14:58:14;2.08;;;0.25;;
33954;SDS011;20233;50.804;7.126;2023-04-03T15:00:43;2.33;;;0.35;;
33954;SDS011;20233;50.804;7.126;2023-04-03T15:03:14;1.40;;;0.20;;
33954;SDS011;20233;50.804;7.126;2023-04-03T15:05:46;1.65;;;0.30;;
33954;SDS011;20233;50.804;7.126;2023-04-03T15:08:19;2.22;;;0.40;;
33954;SDS011;20233;50.804;7.126;2023-04-03T15:10:49;1.27;;;0.20;;
33954;SDS011;20233;50.804;7.126;2023-04-03T15:13:18;2.53;;;0.20;;
33954;SDS011;20233;50.804;7.126;2023-04-03T15:15:45;1.08;;;0.20;;
33954;SDS011;20233;50.804;7.126;2023-04-03T15:18:20;2.25;;;0.30;;
33954;SDS011;20233;50.804;7.126;2023-04-03T15:20:49;1.13;;;0.20;;
33954;SDS011;20233;50.804;7.126;2023-04-03T15:23:16;1.67;;;0.20;;
33954;SDS011;20233;50.804;7.126;2023-04-03T15:25:44;5.70;;;0.30;;
33954;SDS011;20233;50.804;7.126;2023-04-03T15:28:27;3.70;;;0.20;;
33954;SDS011;20233;50.804;7.126;2023-04-03T15:31:02;2.55;;;0.30;;
33954;SDS011;20233;50.804;7.126;2023-04-03T15:33:29;2.05;;;0.50;;
33954;SDS011;20233;50.804;7.126;2023-04-03T15:35:55;1.45;;;0.20;;
33954;SDS011;20233;50.804;7.126;2023-04-03T15:38:22;1.88;;;0.47;;
33954;SDS011;20233;50.804;7.126;2023-04-03T15:40:49;2.30;;;0.30;;
33954;SDS011;20233;50.804;7.126;2023-04-03T15:43:16;2.65;;;0.45;;
33954;SDS011;20233;50.804;7.126;2023-04-03T15:45:42;1.80;;;0.22;;
33954;SDS011;20233;50.804;7.126;2023-04-03T15:48:10;3.13;;;0.47;;
33954;SDS011;20233;50.804;7.126;2023-04-03T15:50:37;1.40;;;0.38;;
33954;SDS011;20233;50.804;7.126;2023-04-03T15:53:05;3.25;;;0.40;;
33954;SDS011;20233;50.804;7.126;2023-04-03T15:55:34;2.13;;;0.20;;
33954;SDS011;20233;50.804;7.126;2023-04-03T15:58:01;2.00;;;0.30;;
33954;SDS011;20233;50.804;7.126;2023-04-03T16:00:28;1.88;;;0.20;;
33954;SDS011;20233;50.804;7.126;2023-04-03T16:02:58;3.47;;;0.30;;
33954;SDS011;20233;50.804;7.126;2023-04-03T16:05:29;2.85;;;0.40;;
33954;SDS011;20233;50.804;7.126;2023-04-03T16:07:57;2.25;;;0.20;;
33954;SDS011;20233;50.804;7.126;2023-04-03T16:10:26;3.22;;;0.20;;
33954;SDS011;20233;50.804;7.126;2023-04-03T16:12:52;2.50;;;0.70;;
33954;SDS011;20233;50.804;7.126;2023-04-03T16:15:19;1.95;;;0.20;;
33954;SDS011;20233;50.804;7.126;2023-04-03T16:17:45;2.63;;;0.30;;
33954;SDS011;20233;50.804;7.126;2023-04-03T16:20:13;2.55;;;0.50;;
33954;SDS011;20233;50.804;7.126;2023-04-03T16:22:40;1.63;;;0.20;;
33954;SDS011;20233;50.804;7.126;2023-04-03T16:25:08;1.27;;;0.30;;
33954;SDS011;20233;50.804;7.126;2023-04-03T16:27:36;1.40;;;0.20;;
33954;SDS011;20233;50.804;7.126;2023-04-03T16:30:04;1.80;;;0.20;;
33954;SDS011;20233;50.804;7.126;2023-04-03T16:32:31;1.73;;;0.20;;
33954;SDS011;20233;50.804;7.126;2023-04-03T16:34:58;2.22;;;0.40;;
33954;SDS011;20233;50.804;7.126;2023-04-03T16:37:25;1.48;;;0.20;;
33954;SDS011;20233;50.804;7.126;2023-04-03T16:39:52;1.05;;;0.10;;
33954;SDS011;20233;50.804;7.126;2023-04-03T16:42:19;1.92;;;0.55;;
33954;SDS011;20233;50.804;7.126;2023-04-03T16:44:45;2.83;;;0.30;;
33954;SDS011;20233;50.804;7.126;2023-04-03T16:47:11;1.75;;;0.20;;
33954;SDS011;20233;50.804;7.126;2023-04-03T16:49:39;1.52;;;0.47;;
33954;SDS011;20233;50.804;7.126;2023-04-03T16:52:06;2.53;;;0.35;;
33954;SDS011;20233;50.804;7.126;2023-04-03T16:54:33;2.67;;;0.50;;
33954;SDS011;20233;50.804;7.126;2023-04-03T16:56:59;1.63;;;0.30;;
33954;SDS011;20233;50.804;7.126;2023-04-03T16:59:25;1.85;;;0.10;;
33954;SDS011;20233;50.804;7.126;2023-04-03T17:01:52;1.38;;;0.20;;